Time,TemperatureF,DewpointF,PressureIn,WindDirection,WindDirectionDegrees,WindSpeedMPH,WindSpeedGustMPH,Humidity,HourlyPrecipIn,Conditions,Clouds,dailyrainin,SolarRadiationWatts/m^2,SoftwareType,DateUTC
2013-01-21 00:05:00,12.3,8.1,30.31,WSW,252,0.0,2.0,83,0.00,,,0.00,0,Wunderground v.1.15,2013-01-21 07:05:00,
2013-01-21 00:10:00,12.0,7.6,30.31,WSW,252,0.0,0.0,82,0.00,,,0.00,0,Wunderground v.1.15,2013-01-21 07:10:00,
2013-01-21 00:16:00,11.8,7.6,30.30,WSW,252,0.0,1.0,83,0.00,,,0.00,0,Wunderground v.1.15,2013-01-21 07:16:00,
2013-01-21 00:22:00,11.6,7.4,30.30,WSW,252,0.0,0.0,83,0.00,,,0.00,0,Wunderground v.1.15,2013-01-21 07:22:00,
2013-01-21 00:28:00,11.7,7.5,30.30,WSW,252,1.0,3.0,83,0.00,,,0.00,0,Wunderground v.1.15,2013-01-21 07:28:00,
2013-01-21 00:33:00,11.8,7.6,30.31,WSW,252,0.0,0.0,83,0.00,,,0.00,0,Wunderground v.1.15,2013-01-21 07:33:00,
2013-01-21 00:39:00,12.0,7.8,30.31,WSW,252,0.0,1.0,83,0.00,,,0.00,0,Wunderground v.1.15,2013-01-21 07:39:00,
2013-01-21 00:45:00,12.1,8.2,30.31,WSW,252,0.0,2.0,84,0.00,,,0.00,0,Wunderground v.1.15,2013-01-21 07:45:00,
2013-01-21 00:50:00,11.9,7.7,30.30,WSW,252,0.0,0.0,83,0.00,,,0.00,0,Wunderground v.1.15,2013-01-21 07:50:00,
2013-01-21 00:55:00,11.8,7.6,30.30,WSW,252,0.0,3.0,83,0.00,,,0.00,0,Wunderground v.1.15,2013-01-21 07:55:00,
2013-01-21 01:01:00,11.9,8.0,30.30,WSW,252,0.0,1.0,84,0.00,,,0.00,0,Wunderground v.1.15,2013-01-21 08:01:00,
2013-01-21 01:07:00,11.5,7.3,30.30,WSW,252,1.0,3.0,83,0.00,,,0.00,0,Wunderground v.1.15,2013-01-21 08:07:00,
2013-01-21 01:12:00,11.0,6.8,30.30,WSW,252,1.0,4.0,83,0.00,,,0.00,0,Wunderground v.1.15,2013-01-21 08:12:00,
2013-01-21 01:17:00,11.1,7.2,30.30,WSW,252,4.0,4.0,84,0.00,,,0.00,0,Wunderground v.1.15,2013-01-21 08:17:00,
2013-01-21 01:23:00,11.5,7.6,30.30,WSW,250,0.0,2.0,84,0.00,,,0.00,0,Wunderground v.1.15,2013-01-21 08:23:00,
2013-01-21 01:29:00,11.8,8.2,30.30,WSW,250,4.0,4.0,85,0.00,,,0.00,0,Wunderground v.1.15,2013-01-21 08:29:00,
2013-01-21 01:34:00,12.1,8.5,30.30,WSW,251,3.0,3.0,85,0.00,,,0.00,0,Wunderground v.1.15,2013-01-21 08:34:00,
2013-01-21 01:39:00,12.1,8.5,30.30,WSW,251,4.0,4.0,85,0.00,,,0.00,0,Wunderground v.1.15,2013-01-21 08:39:00,
2013-01-21 01:45:00,12.2,8.6,30.29,WSW,250,0.0,6.0,85,0.00,,,0.00,0,Wunderground v.1.15,2013-01-21 08:45:00,
2013-01-21 01:50:00,12.3,8.7,30.29,WSW,250,0.0,2.0,85,0.00,,,0.00,0,Wunderground v.1.15,2013-01-21 08:50:00,
2013-01-21 01:56:00,12.7,9.0,30.29,WSW,250,2.0,2.0,85,0.00,,,0.00,0,Wunderground v.1.15,2013-01-21 08:56:00,
2013-01-21 02:01:00,12.5,8.6,30.29,WSW,250,0.0,1.0,84,0.00,,,0.00,0,Wunderground v.1.15,2013-01-21 09:01:00,
2013-01-21 02:06:00,11.9,8.0,30.29,WSW,250,0.0,3.0,84,0.00,,,0.00,0,Wunderground v.1.15,2013-01-21 09:06:00,
2013-01-21 02:11:00,10.9,7.0,30.29,WSW,250,0.0,3.0,84,0.00,,,0.00,0,Wunderground v.1.15,2013-01-21 09:11:00,
2013-01-21 02:16:00,10.5,6.6,30.28,WSW,250,2.0,4.0,84,0.00,,,0.00,0,Wunderground v.1.15,2013-01-21 09:16:00,
2013-01-21 02:21:00,10.4,6.5,30.28,WSW,250,3.0,3.0,84,0.00,,,0.00,0,Wunderground v.1.15,2013-01-21 09:21:00,
2013-01-21 02:26:00,10.4,6.5,30.28,WSW,250,4.0,4.0,84,0.00,,,0.00,0,Wunderground v.1.15,2013-01-21 09:26:00,
2013-01-21 02:31:00,10.7,7.1,30.29,WSW,250,0.0,1.0,85,0.00,,,0.00,0,Wunderground v.1.15,2013-01-21 09:31:00,
2013-01-21 02:36:00,10.7,7.1,30.29,WSW,250,1.0,2.0,85,0.00,,,0.00,0,Wunderground v.1.15,2013-01-21 09:36:00,
2013-01-21 02:42:00,10.6,7.0,30.29,WSW,250,0.0,0.0,85,0.00,,,0.00,0,Wunderground v.1.15,2013-01-21 09:42:00,
2013-01-21 02:47:00,10.4,6.8,30.30,WSW,250,0.0,1.0,85,0.00,,,0.00,0,Wunderground v.1.15,2013-01-21 09:47:00,
2013-01-21 02:52:00,10.2,6.3,30.30,WSW,250,0.0,1.0,84,0.00,,,0.00,0,Wunderground v.1.15,2013-01-21 09:52:00,
2013-01-21 02:57:00,10.0,6.4,30.30,WSW,250,2.0,3.0,85,0.00,,,0.00,0,Wunderground v.1.15,2013-01-21 09:57:00,
2013-01-21 03:02:00,10.0,6.4,30.30,WSW,250,0.0,2.0,85,0.00,,,0.00,0,Wunderground v.1.15,2013-01-21 10:02:00,
2013-01-21 03:07:00,9.9,6.3,30.30,WSW,250,0.0,3.0,85,0.00,,,0.00,0,Wunderground v.1.15,2013-01-21 10:07:00,
2013-01-21 03:12:00,9.9,6.3,30.30,WSW,250,0.0,4.0,85,0.00,,,0.00,0,Wunderground v.1.15,2013-01-21 10:12:00,
2013-01-21 03:17:00,9.9,6.3,30.30,WSW,250,0.0,4.0,85,0.00,,,0.00,0,Wunderground v.1.15,2013-01-21 10:17:00,
2013-01-21 03:22:00,9.8,6.2,30.30,WSW,250,0.0,1.0,85,0.00,,,0.00,0,Wunderground v.1.15,2013-01-21 10:22:00,
2013-01-21 03:27:00,9.5,5.9,30.30,WSW,250,1.0,2.0,85,0.00,,,0.00,0,Wunderground v.1.15,2013-01-21 10:27:00,
2013-01-21 03:32:00,9.6,6.0,30.30,WSW,250,0.0,2.0,85,0.00,,,0.00,0,Wunderground v.1.15,2013-01-21 10:32:00,
2013-01-21 03:37:00,9.6,6.0,30.30,WSW,250,0.0,3.0,85,0.00,,,0.00,0,Wunderground v.1.15,2013-01-21 10:37:00,
2013-01-21 03:42:00,9.6,6.0,30.30,WSW,250,0.0,1.0,85,0.00,,,0.00,0,Wunderground v.1.15,2013-01-21 10:42:00,
2013-01-21 03:47:00,9.5,5.9,30.31,WSW,249,0.0,4.0,85,0.00,,,0.00,0,Wunderground v.1.15,2013-01-21 10:47:00,
2013-01-21 03:52:00,9.4,5.8,30.31,WSW,250,0.0,0.0,85,0.00,,,0.00,0,Wunderground v.1.15,2013-01-21 10:52:00,
2013-01-21 03:57:00,9.2,5.6,30.31,WSW,250,2.0,2.0,85,0.00,,,0.00,0,Wunderground v.1.15,2013-01-21 10:57:00,
2013-01-21 04:02:00,9.3,5.7,30.30,WSW,250,0.0,1.0,85,0.00,,,0.00,0,Wunderground v.1.15,2013-01-21 11:02:00,
2013-01-21 04:07:00,8.8,5.2,30.30,WSW,250,0.0,1.0,85,0.00,,,0.00,0,Wunderground v.1.15,2013-01-21 11:07:00,
2013-01-21 04:12:00,8.5,4.9,30.30,WSW,250,0.0,0.0,85,0.00,,,0.00,0,Wunderground v.1.15,2013-01-21 11:12:00,
2013-01-21 04:17:00,8.2,4.6,30.30,WSW,250,0.0,7.0,85,0.00,,,0.00,0,Wunderground v.1.15,2013-01-21 11:17:00,
2013-01-21 04:22:00,8.1,4.5,30.30,WSW,250,0.0,3.0,85,0.00,,,0.00,0,Wunderground v.1.15,2013-01-21 11:22:00,
2013-01-21 04:27:00,8.0,4.4,30.30,WSW,249,0.0,3.0,85,0.00,,,0.00,0,Wunderground v.1.15,2013-01-21 11:27:00,
2013-01-21 04:32:00,8.1,4.5,30.30,WSW,249,1.0,1.0,85,0.00,,,0.00,0,Wunderground v.1.15,2013-01-21 11:32:00,
2013-01-21 04:37:00,8.2,4.6,30.30,WSW,249,0.0,3.0,85,0.00,,,0.00,0,Wunderground v.1.15,2013-01-21 11:37:00,
2013-01-21 04:42:00,8.1,4.5,30.30,WSW,250,0.0,1.0,85,0.00,,,0.00,0,Wunderground v.1.15,2013-01-21 11:42:00,
2013-01-21 04:47:00,8.0,4.4,30.30,WSW,250,0.0,2.0,85,0.00,,,0.00,0,Wunderground v.1.15,2013-01-21 11:47:00,
2013-01-21 04:52:00,7.9,4.3,30.30,WSW,249,2.0,3.0,85,0.00,,,0.00,0,Wunderground v.1.15,2013-01-21 11:52:00,
2013-01-21 04:57:00,8.2,4.6,30.30,WSW,250,0.0,3.0,85,0.00,,,0.00,0,Wunderground v.1.15,2013-01-21 11:57:00,
2013-01-21 05:02:00,8.2,4.6,30.29,WSW,250,0.0,4.0,85,0.00,,,0.00,0,Wunderground v.1.15,2013-01-21 12:02:00,
2013-01-21 05:07:00,8.2,4.6,30.29,WSW,249,0.0,4.0,85,0.00,,,0.00,0,Wunderground v.1.15,2013-01-21 12:07:00,
2013-01-21 05:12:00,8.0,4.4,30.29,WSW,249,0.0,2.0,85,0.00,,,0.00,0,Wunderground v.1.15,2013-01-21 12:12:00,
2013-01-21 05:17:00,7.7,4.1,30.30,WSW,250,0.0,2.0,85,0.00,,,0.00,0,Wunderground v.1.15,2013-01-21 12:17:00,
2013-01-21 05:22:00,7.6,4.0,30.30,WSW,250,0.0,2.0,85,0.00,,,0.00,0,Wunderground v.1.15,2013-01-21 12:22:00,
2013-01-21 05:27:00,7.4,3.8,30.30,WSW,249,0.0,2.0,85,0.00,,,0.00,0,Wunderground v.1.15,2013-01-21 12:27:00,
2013-01-21 05:32:00,7.2,3.6,30.30,WSW,250,0.0,1.0,85,0.00,,,0.00,0,Wunderground v.1.15,2013-01-21 12:32:00,
2013-01-21 05:37:00,7.1,3.5,30.30,WSW,250,0.0,1.0,85,0.00,,,0.00,0,Wunderground v.1.15,2013-01-21 12:37:00,
2013-01-21 05:42:00,6.9,3.3,30.30,WSW,250,0.0,3.0,85,0.00,,,0.00,0,Wunderground v.1.15,2013-01-21 12:42:00,
2013-01-21 05:47:00,6.8,3.2,30.30,WSW,249,0.0,3.0,85,0.00,,,0.00,0,Wunderground v.1.15,2013-01-21 12:47:00,
2013-01-21 05:52:00,6.8,3.2,30.30,WSW,249,0.0,0.0,85,0.00,,,0.00,0,Wunderground v.1.15,2013-01-21 12:52:00,
2013-01-21 05:57:00,6.7,3.1,30.30,WSW,250,2.0,2.0,85,0.00,,,0.00,0,Wunderground v.1.15,2013-01-21 12:57:00,
2013-01-21 06:02:00,6.9,3.3,30.30,WSW,250,1.0,3.0,85,0.00,,,0.00,0,Wunderground v.1.15,2013-01-21 13:02:00,
2013-01-21 06:07:00,6.7,3.1,30.30,WSW,252,2.0,6.0,85,0.00,,,0.00,0,Wunderground v.1.15,2013-01-21 13:07:00,
2013-01-21 06:13:00,6.9,3.3,30.30,WSW,246,0.0,2.0,85,0.00,,,0.00,0,Wunderground v.1.15,2013-01-21 13:13:00,
2013-01-21 06:18:00,7.0,3.4,30.30,WSW,246,0.0,4.0,85,0.00,,,0.00,0,Wunderground v.1.15,2013-01-21 13:18:00,
2013-01-21 06:23:00,7.3,3.7,30.30,WSW,245,0.0,1.0,85,0.00,,,0.00,0,Wunderground v.1.15,2013-01-21 13:23:00,
2013-01-21 06:28:00,7.2,3.6,30.30,WSW,246,0.0,2.0,85,0.00,,,0.00,0,Wunderground v.1.15,2013-01-21 13:28:00,
2013-01-21 06:33:00,7.1,3.5,30.29,WSW,246,2.0,2.0,85,0.00,,,0.00,0,Wunderground v.1.15,2013-01-21 13:33:00,
2013-01-21 06:38:00,6.5,3.0,30.29,WSW,246,0.0,2.0,85,0.00,,,0.00,0,Wunderground v.1.15,2013-01-21 13:38:00,
2013-01-21 06:43:00,6.3,2.8,30.29,WSW,245,0.0,0.0,85,0.00,,,0.00,0,Wunderground v.1.15,2013-01-21 13:43:00,
2013-01-21 06:48:00,6.3,2.8,30.29,WSW,245,1.0,2.0,85,0.00,,,0.00,0,Wunderground v.1.15,2013-01-21 13:48:00,
2013-01-21 06:53:00,6.2,2.7,30.29,WSW,246,0.0,0.0,85,0.00,,,0.00,0,Wunderground v.1.15,2013-01-21 13:53:00,
2013-01-21 06:58:00,6.1,2.6,30.29,WSW,246,0.0,0.0,85,0.00,,,0.00,0,Wunderground v.1.15,2013-01-21 13:58:00,
2013-01-21 07:03:00,6.1,2.6,30.29,WSW,246,2.0,3.0,85,0.00,,,0.00,0,Wunderground v.1.15,2013-01-21 14:03:00,
2013-01-21 07:08:00,6.2,2.7,30.29,WSW,246,0.0,3.0,85,0.00,,,0.00,0,Wunderground v.1.15,2013-01-21 14:08:00,
2013-01-21 07:13:00,6.2,2.7,30.29,WSW,246,0.0,2.0,85,0.00,,,0.00,0,Wunderground v.1.15,2013-01-21 14:13:00,
2013-01-21 07:19:00,6.2,2.7,30.29,WSW,246,1.0,2.0,85,0.00,,,0.00,0,Wunderground v.1.15,2013-01-21 14:19:00,
2013-01-21 07:24:00,6.1,2.6,30.29,WSW,246,0.0,0.0,85,0.00,,,0.00,0,Wunderground v.1.15,2013-01-21 14:24:00,
2013-01-21 07:29:00,5.9,2.4,30.29,WSW,246,0.0,0.0,85,0.00,,,0.00,0,Wunderground v.1.15,2013-01-21 14:29:00,
2013-01-21 07:34:00,5.3,1.5,30.29,WSW,246,1.0,3.0,84,0.00,,,0.00,0,Wunderground v.1.15,2013-01-21 14:34:00,
2013-01-21 07:39:00,5.2,1.7,30.29,WSW,246,2.0,3.0,85,0.00,,,0.00,0,Wunderground v.1.15,2013-01-21 14:39:00,
2013-01-21 07:44:00,4.9,1.1,30.29,WSW,244,0.0,4.0,84,0.00,,,0.00,0,Wunderground v.1.15,2013-01-21 14:44:00,
2013-01-21 07:49:00,4.5,0.7,30.29,WSW,244,1.0,4.0,84,0.00,,,0.00,0,Wunderground v.1.15,2013-01-21 14:49:00,
2013-01-21 07:54:00,4.5,0.7,30.29,WSW,244,0.0,1.0,84,0.00,,,0.00,0,Wunderground v.1.15,2013-01-21 14:54:00,
2013-01-21 07:59:00,4.5,1.0,30.29,WSW,244,0.0,1.0,85,0.00,,,0.00,0,Wunderground v.1.15,2013-01-21 14:59:00,
2013-01-21 08:04:00,4.6,1.1,30.29,WSW,244,0.0,0.0,85,0.00,,,0.00,0,Wunderground v.1.15,2013-01-21 15:04:00,
2013-01-21 08:09:00,4.7,1.2,30.29,WSW,244,0.0,0.0,85,0.00,,,0.00,5,Wunderground v.1.15,2013-01-21 15:09:00,
2013-01-21 08:14:00,4.8,1.3,30.29,WSW,244,0.0,0.0,85,0.00,,,0.00,9,Wunderground v.1.15,2013-01-21 15:14:00,
2013-01-21 08:19:00,4.9,1.4,30.29,WSW,244,0.0,2.0,85,0.00,,,0.00,11,Wunderground v.1.15,2013-01-21 15:19:00,
2013-01-21 08:24:00,5.0,1.5,30.29,WSW,244,0.0,0.0,85,0.00,,,0.00,12,Wunderground v.1.15,2013-01-21 15:24:00,
2013-01-21 08:29:00,5.1,1.6,30.29,WSW,244,0.0,1.0,85,0.00,,,0.00,16,Wunderground v.1.15,2013-01-21 15:29:00,
2013-01-21 08:34:00,5.2,1.7,30.29,WSW,244,0.0,0.0,85,0.00,,,0.00,18,Wunderground v.1.15,2013-01-21 15:34:00,
2013-01-21 08:39:00,5.4,1.9,30.29,WSW,244,0.0,0.0,85,0.00,,,0.00,18,Wunderground v.1.15,2013-01-21 15:39:00,
2013-01-21 08:44:00,5.4,1.9,30.29,WSW,244,0.0,0.0,85,0.00,,,0.00,18,Wunderground v.1.15,2013-01-21 15:44:00,
2013-01-21 08:49:00,5.5,2.0,30.29,WSW,244,0.0,0.0,85,0.00,,,0.00,19,Wunderground v.1.15,2013-01-21 15:49:00,
2013-01-21 08:54:00,5.6,2.1,30.29,WSW,244,0.0,0.0,85,0.00,,,0.00,26,Wunderground v.1.15,2013-01-21 15:54:00,
2013-01-21 08:59:00,5.9,2.6,30.29,WSW,244,0.0,0.0,86,0.00,,,0.00,60,Wunderground v.1.15,2013-01-21 15:59:00,
2013-01-21 09:04:00,6.8,3.5,30.29,WSW,244,0.0,0.0,86,0.00,,,0.00,125,Wunderground v.1.15,2013-01-21 16:04:00,
2013-01-21 09:09:00,7.9,4.6,30.29,WSW,244,0.0,0.0,86,0.00,,,0.00,149,Wunderground v.1.15,2013-01-21 16:09:00,
2013-01-21 09:14:00,9.9,6.8,30.29,WSW,244,0.0,0.0,87,0.00,,,0.00,62,Wunderground v.1.15,2013-01-21 16:14:00,
2013-01-21 09:19:00,10.6,7.2,30.30,WSW,244,0.0,0.0,86,0.00,,,0.00,93,Wunderground v.1.15,2013-01-21 16:19:00,
2013-01-21 09:24:00,11.2,7.8,30.30,WSW,244,0.0,3.0,86,0.00,,,0.00,84,Wunderground v.1.15,2013-01-21 16:24:00,
2013-01-21 09:29:00,11.4,7.8,30.30,WSW,244,0.0,3.0,85,0.00,,,0.00,146,Wunderground v.1.15,2013-01-21 16:29:00,
2013-01-21 09:34:00,11.9,8.0,30.30,WSW,244,0.0,0.0,84,0.00,,,0.00,135,Wunderground v.1.15,2013-01-21 16:34:00,
2013-01-21 09:39:00,12.8,9.1,30.30,WSW,244,0.0,0.0,85,0.00,,,0.00,176,Wunderground v.1.15,2013-01-21 16:39:00,
2013-01-21 09:44:00,13.7,9.8,30.30,WSW,244,0.0,2.0,84,0.00,,,0.00,246,Wunderground v.1.15,2013-01-21 16:44:00,
2013-01-21 09:49:00,14.9,10.7,30.29,WSW,244,0.0,2.0,83,0.00,,,0.00,237,Wunderground v.1.15,2013-01-21 16:49:00,
2013-01-21 09:54:00,16.5,12.2,30.29,WSW,244,0.0,0.0,83,0.00,,,0.00,255,Wunderground v.1.15,2013-01-21 16:54:00,
2013-01-21 09:59:00,17.1,12.6,30.29,WSW,244,0.0,0.0,82,0.00,,,0.00,255,Wunderground v.1.15,2013-01-21 16:59:00,
2013-01-21 10:04:00,18.2,13.3,30.30,WSW,244,0.0,0.0,81,0.00,,,0.00,313,Wunderground v.1.15,2013-01-21 17:04:00,
2013-01-21 10:09:00,19.3,14.1,30.30,WSW,244,0.0,0.0,80,0.00,,,0.00,325,Wunderground v.1.15,2013-01-21 17:09:00,
2013-01-21 10:14:00,20.2,14.1,30.30,WSW,244,0.0,0.0,77,0.00,,,0.00,327,Wunderground v.1.15,2013-01-21 17:14:00,
2013-01-21 10:19:00,21.0,14.6,30.29,WSW,244,0.0,0.0,76,0.00,,,0.00,336,Wunderground v.1.15,2013-01-21 17:19:00,
2013-01-21 10:24:00,21.7,14.7,30.29,WSW,244,0.0,0.0,74,0.00,,,0.00,355,Wunderground v.1.15,2013-01-21 17:24:00,
2013-01-21 10:29:00,22.4,15.1,30.29,WSW,244,0.0,3.0,73,0.00,,,0.00,334,Wunderground v.1.15,2013-01-21 17:29:00,
2013-01-21 10:34:00,22.8,15.1,30.29,WSW,244,0.0,3.0,72,0.00,,,0.00,320,Wunderground v.1.15,2013-01-21 17:34:00,
2013-01-21 10:39:00,23.6,15.9,30.29,WSW,244,0.0,3.0,72,0.00,,,0.00,306,Wunderground v.1.15,2013-01-21 17:39:00,
2013-01-21 10:44:00,24.0,16.0,30.29,WSW,253,0.0,5.0,71,0.00,,,0.00,283,Wunderground v.1.15,2013-01-21 17:44:00,
2013-01-21 10:49:00,24.0,16.3,30.29,WSW,253,0.0,5.0,72,0.00,,,0.00,308,Wunderground v.1.15,2013-01-21 17:49:00,
2013-01-21 10:54:00,24.2,15.8,30.29,WSW,253,1.0,4.0,70,0.00,,,0.00,322,Wunderground v.1.15,2013-01-21 17:54:00,
2013-01-21 10:59:00,23.8,15.1,30.29,WSW,256,1.0,4.0,69,0.00,,,0.00,330,Wunderground v.1.15,2013-01-21 17:59:00,
2013-01-21 11:04:00,24.2,15.8,30.29,West,267,0.0,4.0,70,0.00,,,0.00,343,Wunderground v.1.15,2013-01-21 18:04:00,
2013-01-21 11:09:00,23.9,14.9,30.29,West,273,3.0,4.0,68,0.00,,,0.00,392,Wunderground v.1.15,2013-01-21 18:09:00,
2013-01-21 11:15:00,24.3,15.6,30.29,WNW,282,4.0,5.0,69,0.00,,,0.00,371,Wunderground v.1.15,2013-01-21 18:15:00,
2013-01-21 11:20:00,24.0,15.0,30.29,WNW,282,2.0,2.0,68,0.00,,,0.00,362,Wunderground v.1.15,2013-01-21 18:20:00,
2013-01-21 11:25:00,23.9,14.5,30.29,WNW,287,3.0,4.0,67,0.00,,,0.00,378,Wunderground v.1.15,2013-01-21 18:25:00,
2013-01-21 11:30:00,24.5,15.4,30.29,WNW,297,5.0,6.0,68,0.00,,,0.00,413,Wunderground v.1.15,2013-01-21 18:30:00,
2013-01-21 11:35:00,25.7,16.3,30.28,NW,304,1.0,6.0,67,0.00,,,0.00,496,Wunderground v.1.15,2013-01-21 18:35:00,
2013-01-21 11:40:00,26.7,16.9,30.28,NW,319,0.0,3.0,66,0.00,,,0.00,601,Wunderground v.1.15,2013-01-21 18:40:00,
2013-01-21 11:45:00,27.2,17.0,30.27,NW,318,0.0,4.0,65,0.00,,,0.00,406,Wunderground v.1.15,2013-01-21 18:45:00,
2013-01-21 11:50:00,27.5,17.3,30.27,NW,319,4.0,4.0,65,0.00,,,0.00,397,Wunderground v.1.15,2013-01-21 18:50:00,
2013-01-21 11:55:00,27.7,17.5,30.27,NW,319,0.0,4.0,65,0.00,,,0.00,339,Wunderground v.1.15,2013-01-21 18:55:00,
2013-01-21 12:00:00,27.8,17.6,30.26,NW,318,0.0,0.0,65,0.00,,,0.00,302,Wunderground v.1.15,2013-01-21 19:00:00,
2013-01-21 12:05:00,27.8,17.2,30.26,NW,319,0.0,0.0,64,0.00,,,0.00,679,Wunderground v.1.15,2013-01-21 19:05:00,
2013-01-21 12:10:00,28.4,17.8,30.26,NW,319,0.0,0.0,64,0.00,,,0.00,457,Wunderground v.1.15,2013-01-21 19:10:00,
2013-01-21 12:15:00,29.2,18.5,30.25,NW,319,0.0,3.0,64,0.00,,,0.00,397,Wunderground v.1.15,2013-01-21 19:15:00,
2013-01-21 12:20:00,29.6,17.8,30.25,NW,319,0.0,1.0,61,0.00,,,0.00,529,Wunderground v.1.15,2013-01-21 19:20:00,
2013-01-21 12:25:00,30.5,19.0,30.25,NW,319,1.0,3.0,62,0.00,,,0.00,540,Wunderground v.1.15,2013-01-21 19:25:00,
2013-01-21 12:30:00,31.0,18.7,30.24,NW,319,0.0,1.0,60,0.00,,,0.00,555,Wunderground v.1.15,2013-01-21 19:30:00,
2013-01-21 12:35:00,31.3,18.6,30.24,NNW,346,0.0,5.0,59,0.00,,,0.00,494,Wunderground v.1.15,2013-01-21 19:35:00,
2013-01-21 12:40:00,31.2,18.9,30.24,NNW,346,0.0,1.0,60,0.00,,,0.00,461,Wunderground v.1.15,2013-01-21 19:40:00,
2013-01-21 12:45:00,31.6,19.7,30.23,NNW,346,0.0,2.0,61,0.00,,,0.00,441,Wunderground v.1.15,2013-01-21 19:45:00,
2013-01-21 12:50:00,31.4,19.1,30.23,NNW,346,0.0,0.0,60,0.00,,,0.00,415,Wunderground v.1.15,2013-01-21 19:50:00,
2013-01-21 12:55:00,31.8,19.5,30.23,NNW,346,0.0,2.0,60,0.00,,,0.00,397,Wunderground v.1.15,2013-01-21 19:55:00,
2013-01-21 13:00:00,32.4,20.0,30.22,NNW,346,2.0,3.0,60,0.00,,,0.00,415,Wunderground v.1.15,2013-01-21 20:00:00,
2013-01-21 13:05:00,32.4,19.7,30.22,NNW,346,2.0,3.0,59,0.00,,,0.00,406,Wunderground v.1.15,2013-01-21 20:05:00,
2013-01-21 13:10:00,32.2,19.5,30.22,NNW,346,1.0,3.0,59,0.00,,,0.00,406,Wunderground v.1.15,2013-01-21 20:10:00,
2013-01-21 13:15:00,32.4,19.7,30.21,NNW,346,2.0,4.0,59,0.00,,,0.00,432,Wunderground v.1.15,2013-01-21 20:15:00,
2013-01-21 13:20:00,32.6,19.8,30.21,NNW,345,3.0,5.0,59,0.00,,,0.00,429,Wunderground v.1.15,2013-01-21 20:20:00,
2013-01-21 13:25:00,32.3,19.6,30.21,NNW,346,2.0,5.0,59,0.00,,,0.00,448,Wunderground v.1.15,2013-01-21 20:25:00,
2013-01-21 13:30:00,32.5,19.7,30.20,NNW,346,0.0,3.0,59,0.00,,,0.00,487,Wunderground v.1.15,2013-01-21 20:30:00,
2013-01-21 13:35:00,32.7,19.9,30.20,NNW,346,0.0,3.0,59,0.00,,,0.00,487,Wunderground v.1.15,2013-01-21 20:35:00,
2013-01-21 13:40:00,32.2,19.1,30.20,NNW,345,0.0,1.0,58,0.00,,,0.00,283,Wunderground v.1.15,2013-01-21 20:40:00,
2013-01-21 13:45:00,32.1,19.4,30.19,NNW,346,0.0,2.0,59,0.00,,,0.00,336,Wunderground v.1.15,2013-01-21 20:45:00,
2013-01-21 13:50:00,32.1,19.4,30.19,NNW,346,0.0,2.0,59,0.00,,,0.00,376,Wunderground v.1.15,2013-01-21 20:50:00,
2013-01-21 13:55:00,32.5,20.1,30.19,NNW,345,0.0,2.0,60,0.00,,,0.00,504,Wunderground v.1.15,2013-01-21 20:55:00,
2013-01-21 14:00:00,33.2,20.4,30.18,NNW,346,0.0,1.0,59,0.00,,,0.00,536,Wunderground v.1.15,2013-01-21 21:00:00,
2013-01-21 14:05:00,34.4,21.1,30.18,NNW,345,0.0,1.0,58,0.00,,,0.00,422,Wunderground v.1.15,2013-01-21 21:05:00,
2013-01-21 14:10:00,35.4,21.2,30.18,NNW,345,0.0,0.0,56,0.00,,,0.00,348,Wunderground v.1.15,2013-01-21 21:10:00,
2013-01-21 14:15:00,35.3,21.2,30.18,NNW,345,0.0,2.0,56,0.00,,,0.00,271,Wunderground v.1.15,2013-01-21 21:15:00,
2013-01-21 14:20:00,35.3,21.2,30.18,NNW,346,1.0,2.0,56,0.00,,,0.00,244,Wunderground v.1.15,2013-01-21 21:20:00,
2013-01-21 14:25:00,34.6,20.5,30.18,NNW,346,0.0,4.0,56,0.00,,,0.00,243,Wunderground v.1.15,2013-01-21 21:25:00,
2013-01-21 14:30:00,34.2,20.9,30.18,NNW,345,0.0,1.0,58,0.00,,,0.00,265,Wunderground v.1.15,2013-01-21 21:30:00,
2013-01-21 14:35:00,33.7,20.9,30.18,NNW,346,2.0,3.0,59,0.00,,,0.00,272,Wunderground v.1.15,2013-01-21 21:35:00,
2013-01-21 14:40:00,33.5,21.1,30.18,NNW,347,0.0,1.0,60,0.00,,,0.00,295,Wunderground v.1.15,2013-01-21 21:40:00,
2013-01-21 14:45:00,34.0,21.2,30.18,NNW,347,0.0,3.0,59,0.00,,,0.00,362,Wunderground v.1.15,2013-01-21 21:45:00,
2013-01-21 14:50:00,34.4,21.5,30.18,NNW,348,0.0,1.0,59,0.00,,,0.00,371,Wunderground v.1.15,2013-01-21 21:50:00,
2013-01-21 14:55:00,34.8,21.9,30.18,North,355,1.0,4.0,59,0.00,,,0.00,362,Wunderground v.1.15,2013-01-21 21:55:00,
2013-01-21 15:00:00,34.6,21.3,30.17,North,355,0.0,0.0,58,0.00,,,0.00,346,Wunderground v.1.15,2013-01-21 22:00:00,
2013-01-21 15:05:00,34.7,21.0,30.17,North,355,0.0,2.0,57,0.00,,,0.00,299,Wunderground v.1.15,2013-01-21 22:05:00,
2013-01-21 15:10:00,34.4,20.7,30.17,North,355,0.0,1.0,57,0.00,,,0.00,274,Wunderground v.1.15,2013-01-21 22:10:00,
2013-01-21 15:15:00,35.0,20.4,30.17,North,355,0.0,2.0,55,0.00,,,0.00,243,Wunderground v.1.15,2013-01-21 22:15:00,
2013-01-21 15:20:00,34.8,21.1,30.17,North,355,0.0,0.0,57,0.00,,,0.00,216,Wunderground v.1.15,2013-01-21 22:20:00,
2013-01-21 15:25:00,35.9,21.3,30.17,North,355,1.0,4.0,55,0.00,,,0.00,216,Wunderground v.1.15,2013-01-21 22:25:00,
2013-01-21 15:31:00,36.1,20.6,30.16,North,355,0.0,2.0,53,0.00,,,0.00,202,Wunderground v.1.15,2013-01-21 22:31:00,
2013-01-21 15:36:00,35.7,20.7,30.16,North,355,0.0,2.0,54,0.00,,,0.00,188,Wunderground v.1.15,2013-01-21 22:36:00,
2013-01-21 15:41:00,36.1,21.5,30.16,North,355,2.0,5.0,55,0.00,,,0.00,174,Wunderground v.1.15,2013-01-21 22:41:00,
2013-01-21 15:46:00,36.5,21.4,30.16,North,355,2.0,5.0,54,0.00,,,0.00,165,Wunderground v.1.15,2013-01-21 22:46:00,
2013-01-21 15:51:00,36.8,21.7,30.16,North,355,0.0,1.0,54,0.00,,,0.00,149,Wunderground v.1.15,2013-01-21 22:51:00,
2013-01-21 15:56:00,36.9,22.2,30.16,North,355,0.0,1.0,55,0.00,,,0.00,132,Wunderground v.1.15,2013-01-21 22:56:00,
2013-01-21 16:01:00,36.9,22.7,30.16,North,355,0.0,0.0,56,0.00,,,0.00,114,Wunderground v.1.15,2013-01-21 23:01:00,
2013-01-21 16:06:00,36.5,22.3,30.16,North,355,0.0,0.0,56,0.00,,,0.00,105,Wunderground v.1.15,2013-01-21 23:06:00,
2013-01-21 16:11:00,36.4,22.6,30.16,North,355,0.0,0.0,57,0.00,,,0.00,86,Wunderground v.1.15,2013-01-21 23:11:00,
2013-01-21 16:16:00,35.9,22.1,30.16,North,355,2.0,2.0,57,0.00,,,0.00,81,Wunderground v.1.15,2013-01-21 23:16:00,
2013-01-21 16:21:00,36.1,22.3,30.16,North,355,0.0,0.0,57,0.00,,,0.00,69,Wunderground v.1.15,2013-01-21 23:21:00,
2013-01-21 16:26:00,36.1,21.9,30.16,North,355,0.0,3.0,56,0.00,,,0.00,56,Wunderground v.1.15,2013-01-21 23:26:00,
2013-01-21 16:32:00,35.3,21.2,30.16,North,355,0.0,0.0,56,0.00,,,0.00,37,Wunderground v.1.15,2013-01-21 23:32:00,
2013-01-21 16:37:00,34.4,21.5,30.16,North,355,3.0,3.0,59,0.00,,,0.00,28,Wunderground v.1.15,2013-01-21 23:37:00,
2013-01-21 16:42:00,33.4,21.0,30.16,North,355,0.0,4.0,60,0.00,,,0.00,23,Wunderground v.1.15,2013-01-21 23:42:00,
2013-01-21 16:47:00,32.3,20.3,30.16,North,355,0.0,4.0,61,0.00,,,0.00,21,Wunderground v.1.15,2013-01-21 23:47:00,
2013-01-21 16:52:00,31.0,19.5,30.16,North,355,0.0,0.0,62,0.00,,,0.00,21,Wunderground v.1.15,2013-01-21 23:52:00,
2013-01-21 16:57:00,30.1,19.0,30.16,North,355,0.0,3.0,63,0.00,,,0.00,18,Wunderground v.1.15,2013-01-21 23:57:00,
2013-01-21 17:02:00,28.8,18.1,30.16,North,355,3.0,3.0,64,0.00,,,0.00,16,Wunderground v.1.15,2013-01-22 00:02:00,
2013-01-21 17:07:00,28.0,18.1,30.16,North,355,2.0,3.0,66,0.00,,,0.00,12,Wunderground v.1.15,2013-01-22 00:07:00,
2013-01-21 17:12:00,27.6,18.1,30.16,North,355,1.0,1.0,67,0.00,,,0.00,11,Wunderground v.1.15,2013-01-22 00:12:00,
2013-01-21 17:17:00,27.2,17.7,30.16,North,355,0.0,3.0,67,0.00,,,0.00,7,Wunderground v.1.15,2013-01-22 00:17:00,
2013-01-21 17:22:00,26.8,17.6,30.16,North,355,0.0,0.0,68,0.00,,,0.00,5,Wunderground v.1.15,2013-01-22 00:22:00,
2013-01-21 17:27:00,26.1,17.3,30.16,North,355,0.0,1.0,69,0.00,,,0.00,5,Wunderground v.1.15,2013-01-22 00:27:00,
2013-01-21 17:32:00,25.7,16.9,30.15,North,355,1.0,1.0,69,0.00,,,0.00,0,Wunderground v.1.15,2013-01-22 00:32:00,
2013-01-21 17:37:00,25.2,16.8,30.15,North,355,0.0,2.0,70,0.00,,,0.00,0,Wunderground v.1.15,2013-01-22 00:37:00,
2013-01-21 17:42:00,24.8,16.7,30.15,North,355,0.0,0.0,71,0.00,,,0.00,0,Wunderground v.1.15,2013-01-22 00:42:00,
2013-01-21 17:47:00,24.4,16.0,30.16,North,355,0.0,0.0,70,0.00,,,0.00,0,Wunderground v.1.15,2013-01-22 00:47:00,
2013-01-21 17:52:00,23.6,15.9,30.16,North,355,0.0,0.0,72,0.00,,,0.00,0,Wunderground v.1.15,2013-01-22 00:52:00,
2013-01-21 17:57:00,23.1,15.7,30.16,North,355,0.0,0.0,73,0.00,,,0.00,0,Wunderground v.1.15,2013-01-22 00:57:00,
2013-01-21 18:02:00,22.7,15.3,30.16,North,355,0.0,0.0,73,0.00,,,0.00,0,Wunderground v.1.15,2013-01-22 01:02:00,
2013-01-21 18:07:00,22.4,15.1,30.16,North,355,0.0,0.0,73,0.00,,,0.00,0,Wunderground v.1.15,2013-01-22 01:07:00,
2013-01-21 18:12:00,22.1,14.8,30.16,North,355,0.0,0.0,73,0.00,,,0.00,0,Wunderground v.1.15,2013-01-22 01:12:00,
2013-01-21 18:17:00,21.6,14.0,30.16,North,355,0.0,4.0,72,0.00,,,0.00,0,Wunderground v.1.15,2013-01-22 01:17:00,
2013-01-21 18:22:00,21.2,13.9,30.16,North,355,0.0,3.0,73,0.00,,,0.00,0,Wunderground v.1.15,2013-01-22 01:22:00,
2013-01-21 18:27:00,20.8,13.5,30.16,North,355,0.0,3.0,73,0.00,,,0.00,0,Wunderground v.1.15,2013-01-22 01:27:00,
2013-01-21 18:32:00,20.6,13.6,30.17,North,355,0.0,0.0,74,0.00,,,0.00,0,Wunderground v.1.15,2013-01-22 01:32:00,
2013-01-21 18:37:00,20.3,13.3,30.17,North,355,0.0,0.0,74,0.00,,,0.00,0,Wunderground v.1.15,2013-01-22 01:37:00,
2013-01-21 18:42:00,20.0,13.3,30.17,North,355,0.0,0.0,75,0.00,,,0.00,0,Wunderground v.1.15,2013-01-22 01:42:00,
2013-01-21 18:47:00,19.7,13.4,30.17,North,355,2.0,3.0,76,0.00,,,0.00,0,Wunderground v.1.15,2013-01-22 01:47:00,
2013-01-21 18:52:00,19.7,13.4,30.17,North,355,2.0,3.0,76,0.00,,,0.00,0,Wunderground v.1.15,2013-01-22 01:52:00,
2013-01-21 18:57:00,19.7,13.4,30.17,North,355,0.0,3.0,76,0.00,,,0.00,0,Wunderground v.1.15,2013-01-22 01:57:00,
2013-01-21 19:02:00,19.7,13.4,30.17,North,355,0.0,4.0,76,0.00,,,0.00,0,Wunderground v.1.15,2013-01-22 02:02:00,
2013-01-21 19:07:00,19.3,12.7,30.17,North,355,2.0,4.0,75,0.00,,,0.00,0,Wunderground v.1.15,2013-01-22 02:07:00,
2013-01-21 19:12:00,18.9,12.3,30.17,North,355,2.0,2.0,75,0.00,,,0.00,0,Wunderground v.1.15,2013-01-22 02:12:00,
2013-01-21 19:17:00,18.8,12.2,30.17,NNW,346,0.0,5.0,75,0.00,,,0.00,0,Wunderground v.1.15,2013-01-22 02:17:00,
2013-01-21 19:22:00,18.5,11.9,30.17,NNW,346,0.0,1.0,75,0.00,,,0.00,0,Wunderground v.1.15,2013-01-22 02:22:00,
2013-01-21 19:27:00,18.3,11.4,30.17,NNW,346,0.0,3.0,74,0.00,,,0.00,0,Wunderground v.1.15,2013-01-22 02:27:00,
2013-01-21 19:32:00,17.9,11.0,30.17,NNW,347,0.0,0.0,74,0.00,,,0.00,0,Wunderground v.1.15,2013-01-22 02:32:00,
2013-01-21 19:37:00,17.3,10.4,30.17,NNW,347,0.0,0.0,74,0.00,,,0.00,0,Wunderground v.1.15,2013-01-22 02:37:00,
2013-01-21 19:42:00,17.0,10.4,30.17,NNW,347,0.0,0.0,75,0.00,,,0.00,0,Wunderground v.1.15,2013-01-22 02:42:00,
2013-01-21 19:47:00,16.5,10.0,30.17,NNW,346,0.0,0.0,75,0.00,,,0.00,0,Wunderground v.1.15,2013-01-22 02:47:00,
2013-01-21 19:52:00,16.4,10.2,30.17,North,360,2.0,4.0,76,0.00,,,0.00,0,Wunderground v.1.15,2013-01-22 02:52:00,
2013-01-21 19:57:00,16.6,10.6,30.17,North,360,0.0,4.0,77,0.00,,,0.00,0,Wunderground v.1.15,2013-01-22 02:57:00,
2013-01-21 20:02:00,16.6,10.3,30.17,North,360,2.0,5.0,76,0.00,,,0.00,0,Wunderground v.1.15,2013-01-22 03:02:00,
2013-01-21 20:07:00,16.4,10.2,30.17,North,360,0.0,5.0,76,0.00,,,0.00,0,Wunderground v.1.15,2013-01-22 03:07:00,
2013-01-21 20:12:00,16.2,10.3,30.17,North,360,1.0,3.0,77,0.00,,,0.00,0,Wunderground v.1.15,2013-01-22 03:12:00,
2013-01-21 20:17:00,16.0,10.1,30.17,North,360,0.0,3.0,77,0.00,,,0.00,0,Wunderground v.1.15,2013-01-22 03:17:00,
2013-01-21 20:22:00,16.0,10.1,30.17,North,360,2.0,3.0,77,0.00,,,0.00,0,Wunderground v.1.15,2013-01-22 03:22:00,
2013-01-21 20:27:00,16.2,10.5,30.17,North,360,0.0,3.0,78,0.00,,,0.00,0,Wunderground v.1.15,2013-01-22 03:27:00,
2013-01-21 20:32:00,16.1,10.4,30.18,North,360,0.0,0.0,78,0.00,,,0.00,0,Wunderground v.1.15,2013-01-22 03:32:00,
2013-01-21 20:37:00,15.8,9.9,30.18,North,360,0.0,0.0,77,0.00,,,0.00,0,Wunderground v.1.15,2013-01-22 03:37:00,
2013-01-21 20:42:00,15.5,9.9,30.18,North,360,0.0,0.0,78,0.00,,,0.00,0,Wunderground v.1.15,2013-01-22 03:42:00,
2013-01-21 20:47:00,15.2,9.6,30.18,North,360,0.0,3.0,78,0.00,,,0.00,0,Wunderground v.1.15,2013-01-22 03:47:00,
2013-01-21 20:52:00,15.0,9.4,30.18,North,360,0.0,0.0,78,0.00,,,0.00,0,Wunderground v.1.15,2013-01-22 03:52:00,
2013-01-21 20:57:00,14.8,9.2,30.18,North,360,0.0,0.0,78,0.00,,,0.00,0,Wunderground v.1.15,2013-01-22 03:57:00,
2013-01-21 21:02:00,14.4,8.8,30.19,North,360,0.0,0.0,78,0.00,,,0.00,0,Wunderground v.1.15,2013-01-22 04:02:00,
2013-01-21 21:07:00,14.1,8.8,30.19,North,360,0.0,0.0,79,0.00,,,0.00,0,Wunderground v.1.15,2013-01-22 04:07:00,
2013-01-21 21:12:00,14.0,9.0,30.19,North,360,0.0,0.0,80,0.00,,,0.00,0,Wunderground v.1.15,2013-01-22 04:12:00,
2013-01-21 21:17:00,14.0,9.0,30.19,North,360,0.0,2.0,80,0.00,,,0.00,0,Wunderground v.1.15,2013-01-22 04:17:00,
2013-01-21 21:23:00,13.9,8.9,30.19,North,360,0.0,0.0,80,0.00,,,0.00,0,Wunderground v.1.15,2013-01-22 04:23:00,
2013-01-21 21:28:00,13.8,8.8,30.19,North,360,1.0,2.0,80,0.00,,,0.00,0,Wunderground v.1.15,2013-01-22 04:28:00,
2013-01-21 21:33:00,13.7,8.7,30.19,North,360,0.0,2.0,80,0.00,,,0.00,0,Wunderground v.1.15,2013-01-22 04:33:00,
2013-01-21 21:38:00,13.7,8.7,30.19,North,360,0.0,4.0,80,0.00,,,0.00,0,Wunderground v.1.15,2013-01-22 04:38:00,
2013-01-21 21:43:00,13.6,8.6,30.19,North,360,0.0,0.0,80,0.00,,,0.00,0,Wunderground v.1.15,2013-01-22 04:43:00,
2013-01-21 21:48:00,13.4,8.4,30.19,North,360,0.0,1.0,80,0.00,,,0.00,0,Wunderground v.1.15,2013-01-22 04:48:00,
2013-01-21 21:53:00,13.1,7.8,30.19,North,360,0.0,4.0,79,0.00,,,0.00,0,Wunderground v.1.15,2013-01-22 04:53:00,
2013-01-21 21:58:00,13.1,8.1,30.19,NNE,28,3.0,4.0,80,0.00,,,0.00,0,Wunderground v.1.15,2013-01-22 04:58:00,
2013-01-21 22:00:00,13.2,8.2,30.19,NNE,27,0.0,1.0,80,0.00,,,0.00,0,Wunderground v.1.15,2013-01-22 05:00:00,
2013-01-21 22:01:00,13.2,8.2,30.19,NNE,27,0.0,1.0,80,0.00,,,0.00,0,Wunderground v.1.15,2013-01-22 05:01:00,
2013-01-21 22:03:00,13.1,8.1,30.19,NNE,26,0.0,1.0,80,0.00,,,0.00,0,Wunderground v.1.15,2013-01-22 05:03:00,
2013-01-21 22:08:00,12.7,7.4,30.19,NNE,27,0.0,1.0,79,0.00,,,0.00,0,Wunderground v.1.15,2013-01-22 05:08:00,
2013-01-21 22:13:00,12.2,7.2,30.19,NNE,28,0.0,3.0,80,0.00,,,0.00,0,Wunderground v.1.15,2013-01-22 05:13:00,
2013-01-21 22:18:00,12.0,7.3,30.20,NNE,28,3.0,3.0,81,0.00,,,0.00,0,Wunderground v.1.15,2013-01-22 05:18:00,
2013-01-21 22:23:00,11.8,7.1,30.20,NNE,28,2.0,6.0,81,0.00,,,0.00,0,Wunderground v.1.15,2013-01-22 05:23:00,
2013-01-21 22:28:00,12.3,7.9,30.20,SSE,157,3.0,6.0,82,0.00,,,0.00,0,Wunderground v.1.15,2013-01-22 05:28:00,
2013-01-21 22:33:00,12.7,8.2,30.20,South,182,1.0,4.0,82,0.00,,,0.00,0,Wunderground v.1.15,2013-01-22 05:33:00,
2013-01-21 22:38:00,13.2,8.7,30.20,South,182,2.0,5.0,82,0.00,,,0.00,0,Wunderground v.1.15,2013-01-22 05:38:00,
2013-01-21 22:43:00,13.4,8.9,30.20,South,182,2.0,2.0,82,0.00,,,0.00,0,Wunderground v.1.15,2013-01-22 05:43:00,
2013-01-21 22:48:00,12.5,7.8,30.19,South,182,2.0,4.0,81,0.00,,,0.00,0,Wunderground v.1.15,2013-01-22 05:48:00,
2013-01-21 22:53:00,11.3,6.3,30.19,South,182,0.0,3.0,80,0.00,,,0.00,0,Wunderground v.1.15,2013-01-22 05:53:00,
2013-01-21 22:58:00,10.4,5.5,30.19,South,182,2.0,3.0,80,0.00,,,0.00,0,Wunderground v.1.15,2013-01-22 05:58:00,
2013-01-21 23:03:00,10.5,5.8,30.19,South,182,1.0,3.0,81,0.00,,,0.00,0,Wunderground v.1.15,2013-01-22 06:03:00,
2013-01-21 23:08:00,11.0,6.6,30.19,South,182,0.0,3.0,82,0.00,,,0.00,0,Wunderground v.1.15,2013-01-22 06:08:00,
2013-01-21 23:13:00,11.4,7.0,30.19,South,182,0.0,1.0,82,0.00,,,0.00,0,Wunderground v.1.15,2013-01-22 06:13:00,
2013-01-21 23:18:00,11.3,6.9,30.20,SSW,199,0.0,3.0,82,0.00,,,0.00,0,Wunderground v.1.15,2013-01-22 06:18:00,
2013-01-21 23:23:00,11.2,6.8,30.20,SSW,199,0.0,0.0,82,0.00,,,0.00,0,Wunderground v.1.15,2013-01-22 06:23:00,
2013-01-21 23:28:00,11.0,6.6,30.20,SSW,199,0.0,0.0,82,0.00,,,0.00,0,Wunderground v.1.15,2013-01-22 06:28:00,
2013-01-21 23:33:00,10.9,6.8,30.20,SSW,199,0.0,0.0,83,0.00,,,0.00,0,Wunderground v.1.15,2013-01-22 06:33:00,
2013-01-21 23:38:00,10.8,6.4,30.20,SSW,199,0.0,0.0,82,0.00,,,0.00,0,Wunderground v.1.15,2013-01-22 06:38:00,
2013-01-21 23:43:00,10.5,6.4,30.20,SSW,199,0.0,0.0,83,0.00,,,0.00,0,Wunderground v.1.15,2013-01-22 06:43:00,
2013-01-21 23:48:00,10.4,6.3,30.20,SSW,199,0.0,0.0,83,0.00,,,0.00,0,Wunderground v.1.15,2013-01-22 06:48:00,
2013-01-21 23:53:00,10.2,6.1,30.20,SSW,200,2.0,3.0,83,0.00,,,0.00,0,Wunderground v.1.15,2013-01-22 06:53:00,
2013-01-21 23:58:00,10.5,6.4,30.20,SSW,199,0.0,3.0,83,0.00,,,0.00,0,Wunderground v.1.15,2013-01-22 06:58:00,